createdAt,value
2023-05-08T00:03:02.073Z,17.53
2023-05-08T00:08:05.962Z,17.48
2023-05-08T00:13:09.328Z,17.37
2023-05-08T00:18:14.087Z,17.47
2023-05-08T00:23:17.458Z,17.18
2023-05-08T00:28:21.691Z,17.41
2023-05-08T00:33:26.454Z,17.43
2023-05-08T00:38:31.621Z,17.41
2023-05-08T00:43:35.860Z,17.33
2023-05-08T00:48:41.649Z,17.33
2023-05-08T00:53:45.562Z,17.26
2023-05-08T00:58:49.104Z,17.00
2023-05-08T01:03:54.228Z,17.27
2023-05-08T01:08:57.670Z,17.22
2023-05-08T01:14:10.156Z,17.30
2023-05-08T01:19:42.923Z,17.37
2023-05-08T01:25:25.435Z,17.40
2023-05-08T01:30:50.771Z,17.38
2023-05-08T01:36:01.814Z,17.33
2023-05-08T01:41:11.663Z,17.03
2023-05-08T01:46:20.995Z,17.21
2023-05-08T01:51:29.175Z,16.07
2023-05-08T01:56:33.657Z,16.87
2023-05-08T02:01:37.807Z,16.36
2023-05-08T02:06:43.319Z,16.60
2023-05-08T02:11:48.526Z,16.85
2023-05-08T02:16:58.402Z,16.97
2023-05-08T02:22:05.214Z,17.09
2023-05-08T02:27:10.528Z,16.94
2023-05-08T02:32:16.351Z,17.04
2023-05-08T02:37:23.711Z,17.04
2023-05-08T02:42:27.869Z,16.99
2023-05-08T02:47:40.556Z,16.71
2023-05-08T02:52:50.958Z,17.04
2023-05-08T02:58:06.025Z,16.82
2023-05-08T03:03:16.613Z,17.00
2023-05-08T03:08:26.278Z,16.96
2023-05-08T03:13:32.523Z,15.06
2023-05-08T03:18:42.604Z,16.53
2023-05-08T03:23:49.100Z,14.71
2023-05-08T03:28:54.951Z,16.32
2023-05-08T03:34:04.227Z,15.57
2023-05-08T03:39:09.567Z,16.44
2023-05-08T03:44:14.221Z,15.04
2023-05-08T03:49:19.316Z,15.17
2023-05-08T03:54:25.689Z,16.57
2023-05-08T03:59:39.708Z,15.29
2023-05-08T04:04:46.630Z,16.08
2023-05-08T04:10:01.381Z,16.73
2023-05-08T04:15:10.343Z,16.52
2023-05-08T04:20:16.930Z,17.15
2023-05-08T04:25:23.779Z,16.34
2023-05-08T04:30:27.940Z,16.92
2023-05-08T04:35:32.076Z,15.92
2023-05-08T04:40:37.205Z,16.17
2023-05-08T04:45:41.001Z,16.62
2023-05-08T04:50:44.591Z,16.15
2023-05-08T04:55:49.558Z,17.06
2023-05-08T05:00:53.212Z,17.05
2023-05-08T05:06:01.641Z,17.12
2023-05-08T05:11:06.991Z,17.10
2023-05-08T05:16:10.810Z,16.87
2023-05-08T05:21:14.762Z,17.06
2023-05-08T05:26:20.263Z,17.07
2023-05-08T05:31:24.218Z,16.88
2023-05-08T05:36:27.973Z,17.01
2023-05-08T05:41:34.296Z,15.60
2023-05-08T05:46:38.534Z,16.73
2023-05-08T05:51:43.247Z,15.71
2023-05-08T05:56:48.714Z,16.67
2023-05-08T06:01:52.769Z,16.87
2023-05-08T06:06:57.025Z,14.59
2023-05-08T06:12:02.348Z,16.24
2023-05-08T06:17:07.147Z,16.59
2023-05-08T06:22:11.236Z,16.61
2023-05-08T06:27:16.676Z,14.48
2023-05-08T06:32:23.448Z,14.35
2023-05-08T06:37:27.794Z,16.77
2023-05-08T06:42:33.414Z,16.69
2023-05-08T06:47:37.784Z,16.53
2023-05-08T06:52:42.469Z,16.48
2023-05-08T06:57:50.723Z,17.26
2023-05-08T07:02:54.915Z,17.20
2023-05-08T07:08:10.539Z,15.53
2023-05-08T08:00:33.598Z,17.53
2023-05-08T08:14:18.037Z,14.82
2023-05-08T08:20:18.319Z,15.36
2023-05-08T08:26:32.844Z,17.35
2023-05-08T08:38:03.283Z,15.43
2023-05-08T08:44:01.104Z,16.24
2023-05-08T08:49:48.137Z,15.35
2023-05-08T08:55:44.202Z,16.74
2023-05-08T09:01:36.130Z,15.87
2023-05-08T09:13:35.255Z,17.43
2023-05-08T09:18:39.928Z,17.91
2023-05-08T09:24:29.103Z,18.12
2023-05-08T09:56:57.989Z,17.52
2023-05-08T10:08:42.643Z,17.00
2023-05-08T10:14:30.661Z,18.37
2023-05-08T10:19:36.031Z,18.71
2023-05-08T10:38:19.917Z,18.83
2023-05-08T10:50:07.375Z,18.80
2023-05-08T10:55:21.094Z,18.74
2023-05-08T11:00:26.282Z,18.88
2023-05-08T11:05:29.953Z,19.59
2023-05-08T11:24:20.212Z,17.29
2023-05-08T11:29:39.518Z,17.40
2023-05-08T11:41:53.726Z,18.09
2023-05-08T11:47:07.333Z,18.07
2023-05-08T11:52:14.066Z,17.17
2023-05-08T11:57:21.943Z,18.24
2023-05-08T12:02:47.671Z,18.44
2023-05-08T12:08:06.586Z,19.10
2023-05-08T12:13:25.407Z,18.60
2023-05-08T12:19:00.763Z,19.06
2023-05-08T12:24:15.769Z,16.78
2023-05-08T12:35:50.996Z,17.68
2023-05-08T13:01:19.046Z,18.22
2023-05-08T13:06:53.033Z,17.75
2023-05-08T13:11:55.988Z,17.28
2023-05-08T13:17:42.751Z,16.90
2023-05-08T13:56:25.055Z,19.52
2023-05-08T14:01:28.500Z,17.40
2023-05-08T14:06:32.613Z,19.34
2023-05-08T14:11:37.840Z,19.06
2023-05-08T14:16:41.726Z,19.48
2023-05-08T14:21:45.568Z,19.30
2023-05-08T14:26:50.517Z,18.23
2023-05-08T14:31:54.085Z,19.49
2023-05-08T14:36:57.657Z,18.29
2023-05-08T14:47:10.423Z,17.94
2023-05-08T14:52:13.963Z,18.95
2023-05-08T14:57:18.998Z,19.22
2023-05-08T15:02:22.681Z,19.21
2023-05-08T15:07:26.248Z,18.56
2023-05-08T15:12:31.207Z,17.85
2023-05-08T15:17:36.526Z,16.95
2023-05-08T15:22:40.724Z,17.62
2023-05-08T15:27:46.017Z,17.53
2023-05-08T15:32:49.586Z,19.06
2023-05-08T15:37:53.351Z,18.39
2023-05-08T15:42:58.612Z,18.74
2023-05-08T15:48:02.095Z,17.81
2023-05-08T15:53:05.831Z,17.68
2023-05-08T15:58:10.721Z,18.83
2023-05-08T16:03:15.820Z,19.20
2023-05-08T16:08:21.714Z,17.65
2023-05-08T16:13:26.678Z,18.99
2023-05-08T16:18:30.140Z,19.21
2023-05-08T16:23:33.696Z,18.84
2023-05-08T16:28:38.729Z,17.91
2023-05-08T16:33:42.244Z,18.58
2023-05-08T16:38:45.717Z,19.35
2023-05-08T16:43:50.557Z,19.05
2023-05-08T16:48:54.005Z,19.04
2023-05-08T16:53:58.148Z,19.36
2023-05-08T16:59:06.467Z,18.93
2023-05-08T17:04:10.330Z,19.05
2023-05-08T17:09:13.826Z,19.23
2023-05-08T17:14:18.757Z,18.53
2023-05-08T17:19:22.207Z,18.61
2023-05-08T17:24:25.788Z,19.16
2023-05-08T17:29:30.724Z,18.94
2023-05-08T17:34:34.264Z,18.95
2023-05-08T17:39:37.707Z,17.71
2023-05-08T17:44:42.722Z,19.18
2023-05-08T17:49:46.249Z,18.60
2023-05-08T17:54:51.836Z,18.47
2023-05-08T17:59:56.670Z,19.25
2023-05-08T18:05:00.221Z,18.51
2023-05-08T18:10:03.863Z,19.27
2023-05-08T18:15:09.767Z,18.56
2023-05-08T18:20:14.039Z,18.73
2023-05-08T18:25:18.030Z,18.47
2023-05-08T18:30:22.895Z,19.02
2023-05-08T18:35:26.519Z,18.33
2023-05-08T18:40:30.032Z,18.71
2023-05-08T18:45:34.787Z,19.16
2023-05-08T18:50:38.468Z,18.42
2023-05-08T18:55:42.142Z,18.39
2023-05-08T19:00:47.025Z,18.55
2023-05-08T19:05:51.273Z,17.72
2023-05-08T19:10:54.784Z,17.67
2023-05-08T19:15:59.770Z,18.69
2023-05-08T19:21:03.336Z,18.44
2023-05-08T19:26:07.249Z,17.80
2023-05-08T19:31:12.200Z,17.71
2023-05-08T19:36:15.729Z,17.13
2023-05-08T19:41:19.292Z,18.57
2023-05-08T19:46:24.214Z,18.33
2023-05-08T19:51:27.735Z,18.14
2023-05-08T19:56:31.159Z,18.30
2023-05-08T20:01:36.164Z,16.65
2023-05-08T20:06:39.980Z,18.38
2023-05-08T20:11:43.451Z,18.46
2023-05-08T20:16:48.323Z,18.43
2023-05-08T20:21:51.853Z,18.34
2023-05-08T20:26:56.298Z,17.64
2023-05-08T20:32:01.152Z,18.23
2023-05-08T20:37:04.674Z,17.60
2023-05-08T20:42:08.130Z,16.75
2023-05-08T20:47:12.919Z,16.99
2023-05-08T20:52:16.505Z,17.57
2023-05-08T20:57:19.971Z,17.29
2023-05-08T21:02:24.800Z,17.72
2023-05-08T21:07:28.282Z,17.64
2023-05-08T21:12:31.764Z,16.85
2023-05-08T21:17:36.845Z,17.42
2023-05-08T21:22:40.361Z,17.47
2023-05-08T21:27:55.156Z,15.97
2023-05-08T21:33:00.405Z,17.17
2023-05-08T21:38:05.698Z,17.32
2023-05-08T21:43:09.281Z,15.16
2023-05-08T21:48:14.045Z,17.22
2023-05-08T21:53:17.677Z,17.14
2023-05-08T21:58:21.146Z,16.83
2023-05-08T22:03:26.037Z,16.76
2023-05-08T22:08:29.526Z,16.98
2023-05-08T22:13:32.930Z,16.65
2023-05-08T22:18:37.765Z,16.57
2023-05-08T22:23:41.233Z,16.73
2023-05-08T22:28:45.166Z,17.04
2023-05-08T22:33:50.009Z,17.06
2023-05-08T22:38:54.534Z,16.72
2023-05-08T22:43:58.494Z,16.40
2023-05-08T22:49:03.540Z,16.29
2023-05-08T22:54:07.534Z,16.84
2023-05-08T22:59:13.694Z,16.75
2023-05-08T23:04:20.128Z,16.89
2023-05-08T23:09:23.896Z,16.80
2023-05-08T23:15:22.598Z,16.92
2023-05-08T23:20:27.430Z,16.71
2023-05-08T23:25:30.950Z,16.07
2023-05-08T23:30:34.531Z,16.19
2023-05-08T23:35:39.296Z,14.50
2023-05-08T23:40:42.652Z,16.45
2023-05-08T23:45:46.066Z,16.21
2023-05-08T23:50:50.886Z,15.89
2023-05-08T23:55:54.308Z,16.31
